createdAt,value
2022-08-11T00:02:22.000Z,2.00
2022-08-11T00:12:22.000Z,1.50
2022-08-11T00:22:21.000Z,1.30
2022-08-11T00:32:21.000Z,2.20
2022-08-11T00:42:21.000Z,2.00
2022-08-11T00:52:21.000Z,1.60
2022-08-11T01:02:21.000Z,1.60
2022-08-11T01:22:21.000Z,1.60
2022-08-11T01:32:20.000Z,1.60
2022-08-11T01:42:20.000Z,2.20
2022-08-11T01:42:20.000Z,2.20
2022-08-11T01:52:20.000Z,2.00
2022-08-11T02:02:20.000Z,2.10
2022-08-11T02:12:20.000Z,2.20
2022-08-11T02:22:20.000Z,1.40
2022-08-11T02:32:20.000Z,2.30
2022-08-11T02:52:19.000Z,1.60
2022-08-11T03:02:19.000Z,3.00
2022-08-11T03:12:19.000Z,2.60
2022-08-11T03:22:19.000Z,2.40
2022-08-11T03:32:19.000Z,2.40
2022-08-11T03:42:19.000Z,2.10
2022-08-11T03:52:18.000Z,2.70
2022-08-11T04:02:18.000Z,2.70
2022-08-11T04:22:18.000Z,2.20
2022-08-11T04:32:18.000Z,2.90
2022-08-11T04:32:18.000Z,2.90
2022-08-11T04:42:18.000Z,3.00
2022-08-11T04:42:18.000Z,3.00
2022-08-11T04:52:18.000Z,2.50
2022-08-11T05:02:17.000Z,2.40
2022-08-11T05:12:17.000Z,2.10
2022-08-11T05:22:17.000Z,3.30
2022-08-11T05:32:17.000Z,2.20
2022-08-11T05:32:17.000Z,2.20
2022-08-11T05:32:17.000Z,2.20
2022-08-11T05:52:17.000Z,2.90
2022-08-11T06:02:17.000Z,2.70
2022-08-11T06:12:16.000Z,2.10
2022-08-11T06:22:16.000Z,1.60
2022-08-11T06:32:16.000Z,1.30
2022-08-11T06:42:16.000Z,1.60
2022-08-11T06:42:16.000Z,1.60
2022-08-11T06:52:16.000Z,1.60
2022-08-11T06:52:16.000Z,1.60
2022-08-11T07:02:16.000Z,1.70
2022-08-11T07:22:16.000Z,1.60
2022-08-11T07:32:15.000Z,1.90
2022-08-11T07:42:15.000Z,1.90
2022-08-11T07:52:15.000Z,1.40
2022-08-11T08:02:15.000Z,1.70
2022-08-11T08:12:15.000Z,1.20
2022-08-11T08:12:15.000Z,1.20
2022-08-11T08:22:15.000Z,1.00
2022-08-11T08:32:15.000Z,1.00
2022-08-11T08:32:15.000Z,1.00
2022-08-11T08:52:14.000Z,1.00
2022-08-11T08:52:14.000Z,1.00
2022-08-11T09:02:14.000Z,1.60
2022-08-11T09:02:14.000Z,1.60
2022-08-11T09:12:14.000Z,1.20
2022-08-11T09:22:14.000Z,1.10
2022-08-11T09:32:14.000Z,1.40
2022-08-11T09:42:14.000Z,1.60
2022-08-11T09:52:14.000Z,1.40
2022-08-11T10:02:13.000Z,0.90
2022-08-11T10:22:13.000Z,1.10
2022-08-11T10:22:13.000Z,1.10
2022-08-11T10:22:13.000Z,1.10
2022-08-11T10:32:13.000Z,1.60
2022-08-11T10:52:30.000Z,1.00
2022-08-11T10:52:30.000Z,1.20
2022-08-11T11:02:30.000Z,1.10
2022-08-11T11:12:30.000Z,0.60
2022-08-11T11:22:30.000Z,1.50
2022-08-11T11:32:30.000Z,1.00
2022-08-11T11:42:29.000Z,1.10
2022-08-11T11:52:29.000Z,0.80
2022-08-11T12:02:29.000Z,1.40
2022-08-11T12:22:29.000Z,0.70
2022-08-11T12:32:29.000Z,1.10
2022-08-11T12:42:29.000Z,0.80
2022-08-11T12:52:29.000Z,1.70
2022-08-11T13:02:28.000Z,0.90
2022-08-11T13:12:28.000Z,1.30
2022-08-11T13:22:28.000Z,1.30
2022-08-11T13:32:28.000Z,1.10
2022-08-11T13:52:28.000Z,2.00
2022-08-11T14:02:28.000Z,1.40
2022-08-11T14:12:27.000Z,1.30
2022-08-11T14:22:27.000Z,1.30
2022-08-11T14:22:27.000Z,1.30
2022-08-11T14:32:27.000Z,1.30
2022-08-11T14:42:27.000Z,1.60
2022-08-11T14:52:27.000Z,1.30
2022-08-11T15:02:27.000Z,1.30
2022-08-11T15:22:27.000Z,0.90
2022-08-11T15:32:26.000Z,1.30
2022-08-11T15:42:26.000Z,1.00
2022-08-11T15:52:26.000Z,1.40
2022-08-11T16:02:26.000Z,1.50
2022-08-11T16:12:26.000Z,1.10
2022-08-11T16:22:26.000Z,1.30
2022-08-11T16:32:26.000Z,2.00
2022-08-11T16:52:25.000Z,1.20
2022-08-11T17:02:25.000Z,1.20
2022-08-11T17:12:25.000Z,0.70
2022-08-11T17:22:25.000Z,1.00
2022-08-11T17:22:25.000Z,1.00
2022-08-11T17:32:25.000Z,1.10
2022-08-11T17:42:25.000Z,0.90
2022-08-11T17:52:24.000Z,0.60
2022-08-11T18:02:24.000Z,0.80
2022-08-11T18:22:24.000Z,1.30
2022-08-11T18:22:24.000Z,1.30
2022-08-11T18:32:24.000Z,0.60
2022-08-11T18:42:24.000Z,0.90
2022-08-11T18:52:24.000Z,0.60
2022-08-11T18:52:24.000Z,0.60
2022-08-11T19:02:24.000Z,1.50
2022-08-11T19:12:23.000Z,0.80
2022-08-11T19:22:23.000Z,1.20
2022-08-11T19:32:23.000Z,0.50
2022-08-11T19:52:23.000Z,1.30
2022-08-11T20:02:23.000Z,0.70
2022-08-11T20:12:23.000Z,0.80
2022-08-11T20:22:22.000Z,0.70
2022-08-11T20:32:22.000Z,0.80
2022-08-11T20:42:22.000Z,0.80
2022-08-11T20:52:22.000Z,1.00
2022-08-11T21:02:22.000Z,0.90
2022-08-11T21:22:22.000Z,1.00
2022-08-11T21:32:21.000Z,1.00
2022-08-11T21:42:21.000Z,1.20
2022-08-11T21:52:21.000Z,0.70
2022-08-11T22:02:21.000Z,1.00
2022-08-11T22:02:21.000Z,1.00
2022-08-11T22:12:21.000Z,0.60
2022-08-11T22:22:21.000Z,1.00
2022-08-11T22:32:21.000Z,0.80
2022-08-11T22:52:20.000Z,1.20
2022-08-11T23:02:20.000Z,1.00
2022-08-11T23:12:20.000Z,0.80
2022-08-11T23:12:20.000Z,0.80
2022-08-11T23:22:20.000Z,1.30
2022-08-11T23:32:20.000Z,1.10
2022-08-11T23:42:20.000Z,0.80
2022-08-11T23:52:20.000Z,1.00
